Valley Peak, Santa Cruz Island Reserve, California Weather observations

Data are for 10 minute period ending at time listed.
 Day   Time   Solar   Ave.   Ave.  Ave.  Vector  Max.   Baro.   Total    
  of    of     Rad.   Air    Rel.  Wind   Wind   Wind  Press.  Precip.   
Year   Day            Temp.  Hum.  Speed  Dir.   Gust                    
2014   (PST)  Kw/m2    F      %     mph   deg.    mph    mb.     in.     
-------------------------------------------------------------------------
 350   13:40   0.20   55.2    93    5.8    38     9.7   964.9    0.00 
 350   13:50   0.13   54.3    94    3.8    18     6.7   965.0    0.00 
 350   14:00   0.09   54.2    93    0.8    26     2.7   965.1    0.00 
 350   14:10   0.36   55.1    92    1.8   113     6.6   965.1    0.00 
 350   14:20   0.47   60.0    82    5.0   115     8.8   965.0    0.00 
 350   14:30   0.42   62.0    78    3.0   114     8.3   965.0    0.00 
 350   14:40   0.41   62.1    76    3.3   156     6.1   965.0    0.00 
 350   14:50   0.31   62.3    74    3.2   140     7.5   964.8    0.00 
 350   15:00   0.33   62.2    74    3.8   140     8.6   964.7    0.00 
 350   15:10   0.23   62.9    72    3.5   136     7.4   964.6    0.00 
 350   15:20   0.16   60.9    75    4.7   127    10.4   964.4    0.00 
 350   15:30   0.14   59.3    78    4.1   129     9.0   964.5    0.00 
 350   15:40   0.15   58.9    80    3.7   139     7.9   964.6    0.00 
 350   15:50   0.14   59.1    78    3.9   142     7.5   964.7    0.00 
 350   16:00   0.08   58.7    79    4.8   167     8.0   964.9    0.00 
 350   16:10   0.07   55.3    87    4.4   156     6.6   964.9    0.00 
 350   16:20   0.02   54.5    88    3.8   149     6.0   964.9    0.00 
 350   16:30   0.01   53.1    91    4.2   165     5.8   965.0    0.00 
 350   16:40   0.00   52.7    92    4.5   175     5.8   965.2    0.00 
 350   16:50   0.00   52.7    92    4.5   186     5.4   965.3    0.00 
 350   17:00   0.00   52.4    92    4.4   160     5.7   965.3    0.00 
 350   17:10   0.00   51.8    93    4.1   157     5.9   965.3    0.00 
 350   17:20   0.00   51.8    94    4.4   197     5.5   965.5    0.00 
 350   17:30   0.00   52.1    94    5.6   208     7.1   965.6    0.00 
 350   17:40   0.00   52.2    93    4.9   194     5.8   965.5    0.00 
 350   17:50   0.00   52.1    94    5.3   196     6.0   965.6    0.00 
 350   18:00   0.00   52.0    94    5.9   180     7.4   965.6    0.00 
 350   18:10   0.00   51.7    95    5.8   172     7.2   965.6    0.00 
 350   18:20   0.00   51.7    96    6.8   188     7.7   965.6    0.00 
 350   18:30   0.00   52.0    95    6.5   204     7.9   965.8    0.00 
 350   18:40   0.00   52.0    96    6.0   209     8.1   965.9    0.00 
 350   18:50   0.00   51.9    96    6.2   201     7.2   965.9    0.00 
 350   19:00   0.00   51.8    96    5.9   187     7.1   965.8    0.00 
 350   19:10   0.00   51.9    96    7.0   190     9.7   965.8    0.00 
 350   19:20   0.00   51.9    96    7.9   205    10.1   965.9    0.00 
 350   19:30   0.00   51.7    97    7.9   191    10.2   965.8    0.00 
 350   19:40   0.00   51.7    97    8.9   200    10.1   965.9    0.00 
 350   19:50   0.00   51.6    97    8.8   215    11.0   966.0    0.00 
 350   20:00   0.00   51.5    98    8.0   214     9.6   966.0    0.00 
 350   20:10   0.00   51.6    98    7.8   212    10.2   966.1    0.00 
 350   20:20   0.00   51.7    98    7.7   202     9.1   966.0    0.00 
 350   20:30   0.00   51.7    98    7.4   192     9.3   965.9    0.00 
 350   20:40   0.00   51.7    98    8.0   189    10.7   965.9    0.00 
 350   20:50   0.00   51.7    98   10.7   200    14.2   966.0    0.00 
 350   21:00   0.00   51.8    98   10.7   196    13.2   966.0    0.00 
 350   21:10   0.00   51.7    98    8.4   179    13.6   965.6    0.00 
 350   21:20   0.00   51.7    98    4.7   156    11.7   965.1    0.01 
 350   21:30   0.00   51.8    99    7.2   174    10.9   965.4    0.00 
 350   21:40   0.00   51.8    99    8.2   178    11.5   965.5    0.00 
 350   21:50   0.00   51.7    99    8.0   184    11.0   965.6    0.00 
 350   22:00   0.00   51.7    99    8.4   187    11.2   965.6    0.01 
 350   22:10   0.00   51.8    99    8.7   191    11.4   965.7    0.00 
 350   22:20   0.00   52.0    99    6.4   179    10.6   965.6    0.00 
 350   22:30   0.00   51.8    99    8.5   182    12.3   965.6    0.00 
 350   22:40   0.00   51.8    99    8.8   183    13.7   965.5    0.00 
 350   22:50   0.00   51.9    99    8.9   176    13.7   965.4    0.00 
 350   23:00   0.00   52.1    99    8.2   170    13.3   965.3    0.00 
 350   23:10   0.00   52.1    99    7.8   169    14.2   965.2    0.00 
 350   23:20   0.00   52.2    99    8.5   169    14.8   965.2    0.00 
 350   23:30   0.00   52.3   100    9.9   173    17.1   965.0    0.00 
 350   23:40   0.00   52.4   100    8.9   168    14.9   965.0    0.00 
 350   23:50   0.00   52.5   100   11.3   177    17.9   964.9    0.00 
 351    0:00   0.00   52.3    99   10.7   179    18.1   964.8    0.01 
 351    0:10   0.00   52.1    98    8.8   166    17.2   964.5    0.00 
 351    0:20   0.00   51.9    97    7.8   156    15.2   964.2    0.01 
 351    0:30   0.00   51.7    96    5.4   158    11.2   963.5    0.03 
 351    0:40   0.00   51.7    98   15.5   177    32.6   963.4    0.03 
 351    0:50   0.00   51.8    99   14.7   188    28.6   964.1    0.12 
 351    1:00   0.00   50.8    97   12.4   206    26.4   964.1    0.07 
 351    1:10   0.00   48.4    90   11.2   262    16.1   964.3    0.00 
 351    1:20   0.00   49.2    92   15.2   278    19.4   964.1    0.00 
 351    1:30   0.00   49.7    92   13.9   286    20.4   964.0    0.00 
 351    1:40   0.00   50.0    89   13.4   290    20.0   964.0    0.00 
 351    1:50   0.00   50.2    88   14.0   288    19.8   964.1    0.00 
 351    2:00   0.00   50.2    89   14.2   284    20.5   964.1    0.00 
 351    2:10   0.00   50.4    90   13.1   278    21.2   964.2    0.00 
 351    2:20   0.00   50.3    92   12.2   289    20.0   964.2    0.00 
 351    2:30   0.00   50.7    91   13.6   299    21.5   964.3    0.00 
 351    2:40   0.00   50.9    90   14.5   304    22.0   964.3    0.00 
 351    2:50   0.00   51.0    89   15.2   309    23.1   964.3    0.00 
 351    3:00   0.00   51.0    91   13.8   313    23.5   964.4    0.00 
 351    3:10   0.00   50.8    93   11.9   327    22.8   964.4    0.00 
 351    3:20   0.00   50.4    96   11.3   350    17.6   964.4    0.00 
 351    3:30   0.00   50.0    99   12.6   350    18.9   964.4    0.00 
 351    3:40   0.00   49.7    99   12.0   352    20.0   964.4    0.00 
 351    3:50   0.00   49.7    94   14.8   337    27.9   964.3    0.00 
 351    4:00   0.00   49.7    93   13.7   346    23.1   964.3    0.00 
 351    4:10   0.00   49.5    93   15.6   342    26.1   964.2    0.00 
 351    4:20   0.00   49.4    94   14.4   345    22.9   964.3    0.00 
 351    4:30   0.00   49.3    94   15.3   344    29.5   964.4    0.00 
 351    4:40   0.00   49.2    94   14.3   344    25.9   964.3    0.00 
 351    4:50   0.00   49.2    95   15.5   347    23.9   964.3    0.00 
 351    5:00   0.00   49.2    93   15.1   346    25.1   964.4    0.00 
 351    5:10   0.00   49.5    90   18.4   330    29.8   964.5    0.00 
 351    5:20   0.00   49.7    91   17.6   336    28.0   964.6    0.00 
 351    5:30   0.00   49.5    91   16.1   342    25.5   964.7    0.00 
 351    5:40   0.00   49.3    89   14.3   348    26.6   964.9    0.00 
 351    5:50   0.00   49.4    86   15.5   343    26.8   965.0    0.00 
 351    6:00   0.00   49.5    85   16.0   341    24.8   965.0    0.00 
 351    6:10   0.00   49.3    87   14.0   348    25.6   965.1    0.00 
 351    6:20   0.00   49.3    86   14.3   353    23.7   965.2    0.00 
 351    6:30   0.00   49.3    85   15.7   348    26.7   965.3    0.00 
 351    6:40   0.00   49.4    84   15.2   352    23.9   965.5    0.00 
 351    6:50   0.00   49.4    84   15.8   346    24.6   965.6    0.00 
 351    7:00   0.00   49.2    84   15.0   344    24.3   965.8    0.00 
 351    7:10   0.01   49.3    85   13.9   340    22.5   965.9    0.00 
 351    7:20   0.03   49.1    85   12.8   348    21.3   966.0    0.00 
 351    7:30   0.06   49.3    85   14.8   349    22.3   966.0    0.00 
 351    7:40   0.09   49.4    85   14.5   348    22.6   966.2    0.00 
 351    7:50   0.12   49.7    82   14.1   349    23.3   966.4    0.00 
 351    8:00   0.15   50.0    80   14.2   333    22.6   966.6    0.00 
 351    8:10   0.18   50.6    73   15.3   319    25.2   966.8    0.00 
 351    8:20   0.22   51.1    70   15.1   318    24.6   967.0    0.00 
 351    8:30   0.29   51.3    70   16.6   312    24.3   967.1    0.00 
 351    8:40   0.23   51.5    70   16.4   312    29.2   967.1    0.00 
 351    8:50   0.13   51.5    67   16.4   323    27.5   967.2    0.00 
 351    9:00   0.23   51.8    65   16.7   322    24.7   967.4    0.00 
 351    9:10   0.14   52.0    63   14.2   327    22.0   967.7    0.00 
 351    9:20   0.37   52.3    63   13.5   333    23.5   967.9    0.00 
 351    9:30   0.40   53.0    61   14.0   333    23.0   968.0    0.00 
 351    9:40   0.42   53.3    59   16.5   322    25.4   968.0    0.00 
 351    9:50   0.43   53.5    57   18.1   326    28.9   968.0    0.00 
 351   10:00   0.46   53.5    60   14.3   348    24.0   967.8    0.00 
 351   10:10   0.48   53.7    62   13.0   348    23.6   967.9    0.00 
 351   10:20   0.50   53.9    62   12.8   347    23.5   968.1    0.00 
 351   10:30   0.51   54.3    62   12.1   349    20.2   968.2    0.00 
 351   10:40   0.52   54.6    62   13.2   354    25.6   968.1    0.00 
 351   10:50   0.53   54.6    61   12.8   349    19.9   968.1    0.00 
 351   11:00   0.53   54.6    62   14.1   324    22.5   968.1    0.00 
 351   11:10   0.56   54.6    62   14.9   325    23.9   968.1    0.00 
 351   11:20   0.54   54.6    62   13.5   333    24.0   968.2    0.00 
 351   11:30   0.56   55.2    61   10.8   322    23.7   968.5    0.00 
 351   11:40   0.58   55.9    62   12.2   312    20.0   968.5    0.00 
 351   11:50   0.55   55.4    58   16.4   312    29.5   968.4    0.00 
 351   12:00   0.44   54.8    58   14.3   303    22.8   968.5    0.00 
 351   12:10   0.55   55.7    56   13.5   306    22.9   968.6    0.00 
 351   12:20   0.48   56.6    57    9.4   310    22.4   968.6    0.00 
 351   12:30   0.28   55.1    60   13.0   316    20.1   968.6    0.00 
 351   12:40   0.25   54.0    63   14.4   313    28.7   968.5    0.00 
 351   12:50   0.26   53.6    62   13.7   325    24.5   968.4    0.00 
 351   13:00   0.22   53.7    62   13.3   317    20.1   968.4    0.00 
 351   13:10   0.21   53.6    62   17.1   306    27.8   968.3    0.00 
 351   13:20   0.21   53.5    60   15.1   322    25.6   968.3    0.00 
 351   13:30   0.23   53.4    58   19.0   318    29.0   968.3    0.00 

Return to Valley Peak, Santa Cruz Island Reserve graphs page.


Western Regional Climate Center,wrcc@dri.edu